sensor_id;sensor_type;location;lat;lon;timestamp;pressure;altitude;pressure_sealevel;temperature;humidity
63088;BME280;49173;43.164;27.786;2022-08-16T00:02:03;99783.31;;;22.69;62.62
63088;BME280;49173;43.164;27.786;2022-08-16T00:04:29;99800.22;;;22.65;62.68
63088;BME280;49173;43.164;27.786;2022-08-16T00:06:55;99785.88;;;22.63;62.88
63088;BME280;49173;43.164;27.786;2022-08-16T00:09:22;99791.69;;;22.60;63.10
63088;BME280;49173;43.164;27.786;2022-08-16T00:11:49;99789.63;;;22.62;63.37
63088;BME280;49173;43.164;27.786;2022-08-16T00:14:21;99800.75;;;22.60;63.25
63088;BME280;49173;43.164;27.786;2022-08-16T00:16:48;99792.72;;;22.59;63.20
63088;BME280;49173;43.164;27.786;2022-08-16T00:19:16;99787.09;;;22.52;63.61
63088;BME280;49173;43.164;27.786;2022-08-16T00:21:43;99792.75;;;22.51;63.75
63088;BME280;49173;43.164;27.786;2022-08-16T00:24:10;99790.03;;;22.51;63.73
63088;BME280;49173;43.164;27.786;2022-08-16T00:26:36;99796.16;;;22.53;63.99
63088;BME280;49173;43.164;27.786;2022-08-16T00:29:02;99794.28;;;22.53;63.89
63088;BME280;49173;43.164;27.786;2022-08-16T00:31:31;99802.16;;;22.56;64.04
63088;BME280;49173;43.164;27.786;2022-08-16T00:33:57;99797.19;;;22.52;64.18
63088;BME280;49173;43.164;27.786;2022-08-16T00:36:23;99801.47;;;22.46;64.46
63088;BME280;49173;43.164;27.786;2022-08-16T00:38:49;99802.47;;;22.53;64.35
63088;BME280;49173;43.164;27.786;2022-08-16T00:41:20;99803.34;;;22.54;64.41
63088;BME280;49173;43.164;27.786;2022-08-16T00:43:47;99806.91;;;22.54;64.33
63088;BME280;49173;43.164;27.786;2022-08-16T00:46:30;99806.63;;;22.49;64.25
63088;BME280;49173;43.164;27.786;2022-08-16T00:48:57;99807.31;;;22.43;64.51
63088;BME280;49173;43.164;27.786;2022-08-16T00:51:24;99809.34;;;22.41;64.80
63088;BME280;49173;43.164;27.786;2022-08-16T00:53:52;99808.84;;;22.37;65.13
63088;BME280;49173;43.164;27.786;2022-08-16T00:56:23;99807.31;;;22.35;65.24
63088;BME280;49173;43.164;27.786;2022-08-16T00:58:49;99806.63;;;22.33;65.58
63088;BME280;49173;43.164;27.786;2022-08-16T01:01:17;99813.97;;;22.32;65.46
63088;BME280;49173;43.164;27.786;2022-08-16T01:03:46;99812.47;;;22.30;65.50
63088;BME280;49173;43.164;27.786;2022-08-16T01:06:13;99807.31;;;22.27;65.30
63088;BME280;49173;43.164;27.786;2022-08-16T01:08:40;99809.38;;;22.25;65.37
63088;BME280;49173;43.164;27.786;2022-08-16T01:11:07;99811.44;;;22.23;65.39
63088;BME280;49173;43.164;27.786;2022-08-16T01:13:35;99812.28;;;22.23;65.38
63088;BME280;49173;43.164;27.786;2022-08-16T01:16:05;99818.13;;;22.20;65.70
63088;BME280;49173;43.164;27.786;2022-08-16T01:18:49;99818.44;;;22.17;65.75
63088;BME280;49173;43.164;27.786;2022-08-16T01:24:06;99811.09;;;22.09;65.87
63088;BME280;49173;43.164;27.786;2022-08-16T01:26:35;99820.47;;;22.07;65.60
63088;BME280;49173;43.164;27.786;2022-08-16T01:29:06;99815.69;;;22.01;65.87
63088;BME280;49173;43.164;27.786;2022-08-16T01:31:33;99816.88;;;21.98;65.75
63088;BME280;49173;43.164;27.786;2022-08-16T01:34:00;99803.56;;;21.95;66.16
63088;BME280;49173;43.164;27.786;2022-08-16T01:36:26;99809.03;;;21.95;66.43
63088;BME280;49173;43.164;27.786;2022-08-16T01:38:52;99807.34;;;21.94;66.57
63088;BME280;49173;43.164;27.786;2022-08-16T01:41:21;99822.34;;;21.90;66.82
63088;BME280;49173;43.164;27.786;2022-08-16T01:43:49;99821.00;;;21.86;67.25
63088;BME280;49173;43.164;27.786;2022-08-16T01:46:27;99822.34;;;21.82;67.54
63088;BME280;49173;43.164;27.786;2022-08-16T01:49:00;99816.22;;;21.80;67.58
63088;BME280;49173;43.164;27.786;2022-08-16T01:51:28;99811.91;;;21.77;68.00
63088;BME280;49173;43.164;27.786;2022-08-16T01:53:54;99811.75;;;21.71;68.10
63088;BME280;49173;43.164;27.786;2022-08-16T01:56:21;99793.81;;;21.68;68.23
63088;BME280;49173;43.164;27.786;2022-08-16T01:58:48;99796.19;;;21.63;68.24
63088;BME280;49173;43.164;27.786;2022-08-16T02:01:13;99791.94;;;21.52;68.39
63088;BME280;49173;43.164;27.786;2022-08-16T02:03:39;99794.84;;;21.51;68.74
63088;BME280;49173;43.164;27.786;2022-08-16T02:06:05;99810.69;;;21.55;69.03
63088;BME280;49173;43.164;27.786;2022-08-16T02:08:32;99800.50;;;21.57;69.56
63088;BME280;49173;43.164;27.786;2022-08-16T02:10:58;99807.13;;;21.55;69.86
63088;BME280;49173;43.164;27.786;2022-08-16T02:13:25;99806.63;;;21.51;70.02
63088;BME280;49173;43.164;27.786;2022-08-16T02:15:51;99802.00;;;21.52;70.11
63088;BME280;49173;43.164;27.786;2022-08-16T02:18:17;99813.44;;;21.55;70.20
63088;BME280;49173;43.164;27.786;2022-08-16T02:20:47;99808.69;;;21.57;70.12
63088;BME280;49173;43.164;27.786;2022-08-16T02:23:14;99811.41;;;21.65;69.48
63088;BME280;49173;43.164;27.786;2022-08-16T02:25:40;99806.28;;;21.62;69.53
63088;BME280;49173;43.164;27.786;2022-08-16T02:28:06;99803.53;;;21.62;69.48
63088;BME280;49173;43.164;27.786;2022-08-16T02:30:32;99807.66;;;21.58;69.91
63088;BME280;49173;43.164;27.786;2022-08-16T02:32:58;99806.44;;;21.53;70.57
63088;BME280;49173;43.164;27.786;2022-08-16T02:35:25;99805.59;;;21.52;70.81
63088;BME280;49173;43.164;27.786;2022-08-16T02:37:52;99799.44;;;21.50;70.94
63088;BME280;49173;43.164;27.786;2022-08-16T02:40:20;99802.69;;;21.54;70.91
63088;BME280;49173;43.164;27.786;2022-08-16T02:42:47;99799.94;;;21.54;70.77
63088;BME280;49173;43.164;27.786;2022-08-16T02:45:14;99795.69;;;21.51;71.02
63088;BME280;49173;43.164;27.786;2022-08-16T02:47:39;99799.28;;;21.52;70.83
63088;BME280;49173;43.164;27.786;2022-08-16T02:50:06;99803.19;;;21.49;70.83
63088;BME280;49173;43.164;27.786;2022-08-16T02:52:32;99806.09;;;21.48;70.59
63088;BME280;49173;43.164;27.786;2022-08-16T02:54:58;99800.81;;;21.46;70.64
63088;BME280;49173;43.164;27.786;2022-08-16T02:57:25;99807.47;;;21.44;70.36
63088;BME280;49173;43.164;27.786;2022-08-16T02:59:51;99805.75;;;21.43;70.25
63088;BME280;49173;43.164;27.786;2022-08-16T03:02:17;99808.63;;;21.41;70.57
63088;BME280;49173;43.164;27.786;2022-08-16T03:04:43;99816.50;;;21.44;70.74
63088;BME280;49173;43.164;27.786;2022-08-16T03:07:09;99807.78;;;21.41;70.76
63088;BME280;49173;43.164;27.786;2022-08-16T03:09:36;99805.22;;;21.39;70.71
63088;BME280;49173;43.164;27.786;2022-08-16T03:12:04;99800.63;;;21.39;71.00
63088;BME280;49173;43.164;27.786;2022-08-16T03:14:30;99811.22;;;21.43;70.81
63088;BME280;49173;43.164;27.786;2022-08-16T03:16:57;99808.81;;;21.39;71.10
63088;BME280;49173;43.164;27.786;2022-08-16T03:19:23;99811.72;;;21.38;71.22
63088;BME280;49173;43.164;27.786;2022-08-16T03:21:50;99813.06;;;21.42;71.27
63088;BME280;49173;43.164;27.786;2022-08-16T03:24:16;99800.63;;;21.39;71.01
63088;BME280;49173;43.164;27.786;2022-08-16T03:26:42;99815.13;;;21.40;70.99
63088;BME280;49173;43.164;27.786;2022-08-16T03:29:08;99804.19;;;21.40;71.07
63088;BME280;49173;43.164;27.786;2022-08-16T03:31:33;99812.72;;;21.37;70.86
63088;BME280;49173;43.164;27.786;2022-08-16T03:33:59;99807.75;;;21.32;70.92
63088;BME280;49173;43.164;27.786;2022-08-16T03:36:25;99808.97;;;21.30;71.11
63088;BME280;49173;43.164;27.786;2022-08-16T03:38:51;99815.56;;;21.27;71.33
63088;BME280;49173;43.164;27.786;2022-08-16T03:41:16;99815.72;;;21.26;71.45
63088;BME280;49173;43.164;27.786;2022-08-16T03:43:42;99814.88;;;21.25;71.60
63088;BME280;49173;43.164;27.786;2022-08-16T03:46:08;99812.31;;;21.24;71.83
63088;BME280;49173;43.164;27.786;2022-08-16T03:48:37;99815.72;;;21.26;71.45
63088;BME280;49173;43.164;27.786;2022-08-16T03:51:06;99811.84;;;21.28;71.75
63088;BME280;49173;43.164;27.786;2022-08-16T03:53:33;99819.31;;;21.26;71.88
63088;BME280;49173;43.164;27.786;2022-08-16T03:56:00;99820.75;;;21.30;71.82
63088;BME280;49173;43.164;27.786;2022-08-16T03:58:26;99819.03;;;21.29;71.78
63088;BME280;49173;43.164;27.786;2022-08-16T04:00:51;99828.56;;;21.33;71.98
63088;BME280;49173;43.164;27.786;2022-08-16T04:03:20;99835.59;;;21.36;72.26
63088;BME280;49173;43.164;27.786;2022-08-16T04:05:47;99828.41;;;21.35;72.40
63088;BME280;49173;43.164;27.786;2022-08-16T04:08:16;99820.56;;;21.40;72.46
63088;BME280;49173;43.164;27.786;2022-08-16T04:10:44;99826.22;;;21.47;72.21
63088;BME280;49173;43.164;27.786;2022-08-16T04:13:09;99825.03;;;21.49;72.05
63088;BME280;49173;43.164;27.786;2022-08-16T04:15:35;99825.38;;;21.54;72.22
63088;BME280;49173;43.164;27.786;2022-08-16T04:18:03;99832.25;;;21.66;71.70
63088;BME280;49173;43.164;27.786;2022-08-16T04:20:29;99829.88;;;21.80;71.52
63088;BME280;49173;43.164;27.786;2022-08-16T04:22:56;99823.38;;;21.97;70.91
63088;BME280;49173;43.164;27.786;2022-08-16T04:25:22;99825.28;;;22.13;70.73
63088;BME280;49173;43.164;27.786;2022-08-16T04:27:48;99826.97;;;22.30;70.65
63088;BME280;49173;43.164;27.786;2022-08-16T04:30:18;99820.28;;;22.41;70.52
63088;BME280;49173;43.164;27.786;2022-08-16T04:32:45;99831.03;;;22.51;70.43
63088;BME280;49173;43.164;27.786;2022-08-16T04:35:20;99831.53;;;22.62;70.53
63088;BME280;49173;43.164;27.786;2022-08-16T04:37:57;99825.69;;;22.73;69.95
63088;BME280;49173;43.164;27.786;2022-08-16T04:40:24;99818.28;;;22.82;70.69
63088;BME280;49173;43.164;27.786;2022-08-16T04:42:53;99824.09;;;22.95;69.85
63088;BME280;49173;43.164;27.786;2022-08-16T04:45:19;99823.91;;;23.05;69.30
63088;BME280;49173;43.164;27.786;2022-08-16T04:47:46;99831.69;;;23.16;70.30
63088;BME280;49173;43.164;27.786;2022-08-16T04:50:19;99818.78;;;23.33;67.69
63088;BME280;49173;43.164;27.786;2022-08-16T04:52:48;99815.81;;;23.43;66.80
63088;BME280;49173;43.164;27.786;2022-08-16T04:55:18;99828.22;;;23.53;67.23
63088;BME280;49173;43.164;27.786;2022-08-16T04:57:47;99824.47;;;23.63;66.37
63088;BME280;49173;43.164;27.786;2022-08-16T05:00:17;99828.19;;;23.70;65.84
63088;BME280;49173;43.164;27.786;2022-08-16T05:02:44;99827.06;;;23.79;65.62
63088;BME280;49173;43.164;27.786;2022-08-16T05:05:11;99831.81;;;23.85;65.09
63088;BME280;49173;43.164;27.786;2022-08-16T05:07:38;99830.25;;;23.91;64.93
63088;BME280;49173;43.164;27.786;2022-08-16T05:10:06;99836.00;;;23.96;64.55
63088;BME280;49173;43.164;27.786;2022-08-16T05:12:33;99834.22;;;24.03;64.96
63088;BME280;49173;43.164;27.786;2022-08-16T05:14:59;99824.94;;;24.12;64.05
63088;BME280;49173;43.164;27.786;2022-08-16T05:17:25;99827.59;;;24.20;64.53
63088;BME280;49173;43.164;27.786;2022-08-16T05:19:51;99825.63;;;24.29;64.18
63088;BME280;49173;43.164;27.786;2022-08-16T05:22:17;99830.00;;;24.38;64.29
63088;BME280;49173;43.164;27.786;2022-08-16T05:24:43;99827.38;;;24.45;63.90
63088;BME280;49173;43.164;27.786;2022-08-16T05:27:09;99824.94;;;24.50;63.97
63088;BME280;49173;43.164;27.786;2022-08-16T05:29:35;99823.69;;;24.52;63.42
63088;BME280;49173;43.164;27.786;2022-08-16T05:32:01;99815.28;;;24.54;63.61
63088;BME280;49173;43.164;27.786;2022-08-16T05:34:27;99829.97;;;24.61;63.33
63088;BME280;49173;43.164;27.786;2022-08-16T05:36:54;99818.03;;;24.69;63.38
63088;BME280;49173;43.164;27.786;2022-08-16T05:39:23;99833.16;;;24.79;62.57
63088;BME280;49173;43.164;27.786;2022-08-16T05:41:50;99822.47;;;24.84;62.63
63088;BME280;49173;43.164;27.786;2022-08-16T05:44:16;99822.97;;;24.88;61.94
63088;BME280;49173;43.164;27.786;2022-08-16T05:46:42;99825.97;;;24.93;62.53
63088;BME280;49173;43.164;27.786;2022-08-16T05:49:11;99827.97;;;24.99;61.87
63088;BME280;49173;43.164;27.786;2022-08-16T05:51:42;99828.28;;;25.04;61.67
63088;BME280;49173;43.164;27.786;2022-08-16T05:54:10;99828.38;;;25.11;60.97
63088;BME280;49173;43.164;27.786;2022-08-16T05:56:36;99820.88;;;25.19;60.32
63088;BME280;49173;43.164;27.786;2022-08-16T05:59:02;99835.34;;;25.28;60.14
63088;BME280;49173;43.164;27.786;2022-08-16T06:01:28;99830.56;;;25.37;60.23
63088;BME280;49173;43.164;27.786;2022-08-16T06:03:54;99823.09;;;25.45;59.94
63088;BME280;49173;43.164;27.786;2022-08-16T06:06:20;99832.06;;;25.54;59.92
63088;BME280;49173;43.164;27.786;2022-08-16T06:08:46;99840.38;;;25.61;59.31
63088;BME280;49173;43.164;27.786;2022-08-16T06:11:11;99841.50;;;25.66;60.02
63088;BME280;49173;43.164;27.786;2022-08-16T06:13:39;99833.50;;;25.71;59.64
63088;BME280;49173;43.164;27.786;2022-08-16T06:16:07;99827.94;;;25.80;59.34
63088;BME280;49173;43.164;27.786;2022-08-16T06:18:33;99824.22;;;25.87;59.69
63088;BME280;49173;43.164;27.786;2022-08-16T06:20:59;99821.75;;;25.99;59.14
63088;BME280;49173;43.164;27.786;2022-08-16T06:23:25;99821.25;;;26.10;58.13
63088;BME280;49173;43.164;27.786;2022-08-16T06:25:52;99824.50;;;26.20;58.39
63088;BME280;49173;43.164;27.786;2022-08-16T06:28:18;99823.31;;;26.29;57.50
63088;BME280;49173;43.164;27.786;2022-08-16T06:30:45;99827.06;;;26.43;57.83
63088;BME280;49173;43.164;27.786;2022-08-16T06:33:15;99838.56;;;26.53;57.17
63088;BME280;49173;43.164;27.786;2022-08-16T06:35:41;99829.75;;;26.65;56.50
63088;BME280;49173;43.164;27.786;2022-08-16T06:38:07;99829.16;;;26.76;56.18
63088;BME280;49173;43.164;27.786;2022-08-16T06:40:33;99836.03;;;26.87;55.13
63088;BME280;49173;43.164;27.786;2022-08-16T06:42:59;99830.97;;;26.97;54.02
63088;BME280;49173;43.164;27.786;2022-08-16T06:45:25;99831.50;;;27.07;52.42
63088;BME280;49173;43.164;27.786;2022-08-16T06:47:51;99830.91;;;27.18;52.77
63088;BME280;49173;43.164;27.786;2022-08-16T06:50:17;99829.50;;;27.29;51.88
63088;BME280;49173;43.164;27.786;2022-08-16T06:52:44;99815.31;;;27.38;51.29
63088;BME280;49173;43.164;27.786;2022-08-16T06:55:11;99821.47;;;27.47;51.04
63088;BME280;49173;43.164;27.786;2022-08-16T06:57:38;99815.78;;;27.55;51.44
63088;BME280;49173;43.164;27.786;2022-08-16T07:00:06;99818.16;;;27.65;51.46
63088;BME280;49173;43.164;27.786;2022-08-16T07:02:39;99820.53;;;27.81;51.23
63088;BME280;49173;43.164;27.786;2022-08-16T07:05:07;99822.91;;;27.91;50.64
63088;BME280;49173;43.164;27.786;2022-08-16T07:07:33;99820.78;;;28.00;50.68
63088;BME280;49173;43.164;27.786;2022-08-16T07:10:00;99818.22;;;28.11;50.93
63088;BME280;49173;43.164;27.786;2022-08-16T07:12:26;99818.91;;;28.20;50.86
63088;BME280;49173;43.164;27.786;2022-08-16T07:14:52;99823.13;;;28.29;50.66
63088;BME280;49173;43.164;27.786;2022-08-16T07:17:18;99826.56;;;28.38;50.50
63088;BME280;49173;43.164;27.786;2022-08-16T07:19:46;99826.31;;;28.46;50.13
63088;BME280;49173;43.164;27.786;2022-08-16T07:22:12;99831.00;;;28.52;50.37
63088;BME280;49173;43.164;27.786;2022-08-16T07:24:37;99833.97;;;28.57;49.76
63088;BME280;49173;43.164;27.786;2022-08-16T07:27:06;99829.69;;;28.61;49.88
63088;BME280;49173;43.164;27.786;2022-08-16T07:29:32;99832.91;;;28.65;49.60
63088;BME280;49173;43.164;27.786;2022-08-16T07:31:58;99834.19;;;28.69;49.44
63088;BME280;49173;43.164;27.786;2022-08-16T07:34:25;99829.69;;;28.74;49.26
63088;BME280;49173;43.164;27.786;2022-08-16T07:36:51;99822.69;;;28.79;49.57
63088;BME280;49173;43.164;27.786;2022-08-16T07:39:17;99820.97;;;28.84;49.49
63088;BME280;49173;43.164;27.786;2022-08-16T07:41:44;99822.03;;;28.90;49.44
63088;BME280;49173;43.164;27.786;2022-08-16T07:44:11;99818.41;;;28.96;48.31
63088;BME280;49173;43.164;27.786;2022-08-16T07:46:39;99820.75;;;28.99;48.90
63088;BME280;49173;43.164;27.786;2022-08-16T07:49:05;99819.03;;;29.05;48.56
63088;BME280;49173;43.164;27.786;2022-08-16T07:51:33;99813.06;;;29.08;48.65
63088;BME280;49173;43.164;27.786;2022-08-16T07:54:06;99805.81;;;29.13;48.29
63088;BME280;49173;43.164;27.786;2022-08-16T07:56:33;99809.19;;;29.15;48.18
63088;BME280;49173;43.164;27.786;2022-08-16T07:58:59;99809.16;;;29.22;47.99
63088;BME280;49173;43.164;27.786;2022-08-16T08:01:27;99807.22;;;29.29;48.26
63088;BME280;49173;43.164;27.786;2022-08-16T08:03:55;99808.50;;;29.33;47.32
63088;BME280;49173;43.164;27.786;2022-08-16T08:06:26;99809.97;;;29.36;47.40
63088;BME280;49173;43.164;27.786;2022-08-16T08:08:59;99810.38;;;29.39;47.43
63088;BME280;49173;43.164;27.786;2022-08-16T08:11:27;99812.06;;;29.40;46.95
63088;BME280;49173;43.164;27.786;2022-08-16T08:14:00;99809.69;;;29.44;47.17
63088;BME280;49173;43.164;27.786;2022-08-16T08:16:27;99809.47;;;29.52;47.27
63088;BME280;49173;43.164;27.786;2022-08-16T08:18:54;99809.06;;;29.55;46.52
63088;BME280;49173;43.164;27.786;2022-08-16T08:21:23;99815.81;;;29.59;46.05
63088;BME280;49173;43.164;27.786;2022-08-16T08:23:51;99803.47;;;29.62;45.74
63088;BME280;49173;43.164;27.786;2022-08-16T08:26:20;99807.72;;;29.64;45.72
63088;BME280;49173;43.164;27.786;2022-08-16T08:28:46;99811.75;;;29.68;46.04
63088;BME280;49173;43.164;27.786;2022-08-16T08:31:13;99817.66;;;29.72;45.62
63088;BME280;49173;43.164;27.786;2022-08-16T08:33:43;99804.69;;;29.72;45.66
63088;BME280;49173;43.164;27.786;2022-08-16T08:36:09;99809.78;;;29.75;45.39
63088;BME280;49173;43.164;27.786;2022-08-16T08:38:41;99797.19;;;29.79;45.75
63088;BME280;49173;43.164;27.786;2022-08-16T08:41:09;99807.34;;;29.86;46.40
63088;BME280;49173;43.164;27.786;2022-08-16T08:43:35;99812.22;;;29.90;45.91
63088;BME280;49173;43.164;27.786;2022-08-16T08:46:02;99798.97;;;29.99;45.86
63088;BME280;49173;43.164;27.786;2022-08-16T08:48:28;99793.38;;;30.05;45.88
63088;BME280;49173;43.164;27.786;2022-08-16T08:50:56;99789.50;;;30.13;44.90
63088;BME280;49173;43.164;27.786;2022-08-16T08:53:24;99790.78;;;30.17;44.79
63088;BME280;49173;43.164;27.786;2022-08-16T08:55:53;99788.66;;;30.13;44.48
63088;BME280;49173;43.164;27.786;2022-08-16T08:58:20;99782.28;;;30.12;44.59
63088;BME280;49173;43.164;27.786;2022-08-16T09:00:46;99770.13;;;30.13;44.44
63088;BME280;49173;43.164;27.786;2022-08-16T09:03:13;99784.16;;;30.18;44.39
63088;BME280;49173;43.164;27.786;2022-08-16T09:05:40;99785.19;;;30.24;44.19
63088;BME280;49173;43.164;27.786;2022-08-16T09:08:06;99776.16;;;30.28;43.91
63088;BME280;49173;43.164;27.786;2022-08-16T09:10:32;99772.19;;;30.24;42.53
63088;BME280;49173;43.164;27.786;2022-08-16T09:12:59;99781.47;;;30.30;43.25
63088;BME280;49173;43.164;27.786;2022-08-16T09:15:25;99772.72;;;30.33;43.29
63088;BME280;49173;43.164;27.786;2022-08-16T09:17:52;99777.81;;;30.36;41.75
63088;BME280;49173;43.164;27.786;2022-08-16T09:20:22;99779.91;;;30.41;40.61
63088;BME280;49173;43.164;27.786;2022-08-16T09:22:50;99767.06;;;30.46;40.72
63088;BME280;49173;43.164;27.786;2022-08-16T09:25:20;99764.44;;;30.51;41.24
63088;BME280;49173;43.164;27.786;2022-08-16T09:27:49;99763.94;;;30.61;40.98
63088;BME280;49173;43.164;27.786;2022-08-16T09:30:18;99767.75;;;30.67;40.57
63088;BME280;49173;43.164;27.786;2022-08-16T09:32:46;99759.13;;;30.75;41.16
63088;BME280;49173;43.164;27.786;2022-08-16T09:35:13;99771.22;;;30.80;39.09
63088;BME280;49173;43.164;27.786;2022-08-16T09:37:39;99771.22;;;30.80;37.27
63088;BME280;49173;43.164;27.786;2022-08-16T09:40:09;99762.03;;;30.80;37.86
63088;BME280;49173;43.164;27.786;2022-08-16T09:42:36;99763.66;;;30.87;38.23
63088;BME280;49173;43.164;27.786;2022-08-16T09:45:04;99765.28;;;30.95;38.98
63088;BME280;49173;43.164;27.786;2022-08-16T09:47:35;99765.19;;;31.02;36.98
63088;BME280;49173;43.164;27.786;2022-08-16T09:50:07;99764.88;;;31.10;37.67
63088;BME280;49173;43.164;27.786;2022-08-16T09:52:36;99761.78;;;31.18;37.80
63088;BME280;49173;43.164;27.786;2022-08-16T09:55:06;99754.84;;;31.27;36.82
63088;BME280;49173;43.164;27.786;2022-08-16T09:57:33;99755.38;;;31.36;37.24
63088;BME280;49173;43.164;27.786;2022-08-16T09:59:59;99759.97;;;31.42;36.78
63088;BME280;49173;43.164;27.786;2022-08-16T10:02:28;99759.03;;;31.48;36.52
63088;BME280;49173;43.164;27.786;2022-08-16T10:05:01;99755.56;;;31.53;37.13
63088;BME280;49173;43.164;27.786;2022-08-16T10:07:32;99763.16;;;31.57;36.84
63088;BME280;49173;43.164;27.786;2022-08-16T10:10:02;99753.63;;;31.53;36.17
63088;BME280;49173;43.164;27.786;2022-08-16T10:12:30;99752.31;;;31.56;36.86
63088;BME280;49173;43.164;27.786;2022-08-16T10:15:18;99748.13;;;31.65;36.61
63088;BME280;49173;43.164;27.786;2022-08-16T10:17:51;99756.13;;;31.73;36.70
63088;BME280;49173;43.164;27.786;2022-08-16T10:20:18;99756.47;;;31.77;36.62
63088;BME280;49173;43.164;27.786;2022-08-16T10:22:46;99749.56;;;31.86;36.65
63088;BME280;49173;43.164;27.786;2022-08-16T10:25:15;99758.97;;;31.96;36.10
63088;BME280;49173;43.164;27.786;2022-08-16T10:27:46;99757.91;;;32.09;36.52
63088;BME280;49173;43.164;27.786;2022-08-16T10:30:16;99764.53;;;32.20;36.42
63088;BME280;49173;43.164;27.786;2022-08-16T10:32:43;99759.50;;;32.29;34.34
63088;BME280;49173;43.164;27.786;2022-08-16T10:35:10;99764.97;;;32.35;35.42
63088;BME280;49173;43.164;27.786;2022-08-16T10:37:39;99762.16;;;32.47;34.71
63088;BME280;49173;43.164;27.786;2022-08-16T10:40:09;99767.47;;;32.60;35.56
63088;BME280;49173;43.164;27.786;2022-08-16T10:42:38;99770.25;;;32.72;35.30
63088;BME280;49173;43.164;27.786;2022-08-16T10:45:04;99769.28;;;32.78;35.57
63088;BME280;49173;43.164;27.786;2022-08-16T10:47:33;99778.97;;;32.87;35.67
63088;BME280;49173;43.164;27.786;2022-08-16T10:50:05;99769.25;;;33.01;35.95
63088;BME280;49173;43.164;27.786;2022-08-16T10:52:32;99778.75;;;33.17;35.45
63088;BME280;49173;43.164;27.786;2022-08-16T10:54:59;99767.94;;;33.32;34.87
63088;BME280;49173;43.164;27.786;2022-08-16T10:57:28;99758.38;;;33.40;34.19
63088;BME280;49173;43.164;27.786;2022-08-16T10:59:57;99756.91;;;33.49;33.97
63088;BME280;49173;43.164;27.786;2022-08-16T11:02:29;99771.25;;;33.58;33.52
63088;BME280;49173;43.164;27.786;2022-08-16T11:04:56;99746.66;;;33.67;33.15
63088;BME280;49173;43.164;27.786;2022-08-16T11:07:22;99752.56;;;33.70;32.98
63088;BME280;49173;43.164;27.786;2022-08-16T11:09:48;99751.31;;;33.78;33.64
63088;BME280;49173;43.164;27.786;2022-08-16T11:12:15;99746.75;;;33.88;34.02
63088;BME280;49173;43.164;27.786;2022-08-16T11:14:41;99752.81;;;33.97;33.78
63088;BME280;49173;43.164;27.786;2022-08-16T11:17:10;99756.25;;;34.04;33.33
63088;BME280;49173;43.164;27.786;2022-08-16T11:19:39;99756.06;;;34.11;33.75
63088;BME280;49173;43.164;27.786;2022-08-16T11:22:09;99755.41;;;34.21;33.73
63088;BME280;49173;43.164;27.786;2022-08-16T11:24:35;99762.31;;;34.18;32.46
63088;BME280;49173;43.164;27.786;2022-08-16T11:27:16;99760.56;;;34.12;32.58
63088;BME280;49173;43.164;27.786;2022-08-16T11:29:42;99758.09;;;34.15;32.75
63088;BME280;49173;43.164;27.786;2022-08-16T11:32:09;99758.19;;;34.21;32.14
63088;BME280;49173;43.164;27.786;2022-08-16T11:34:35;99751.78;;;34.20;32.22
63088;BME280;49173;43.164;27.786;2022-08-16T11:37:02;99748.72;;;34.22;32.54
63088;BME280;49173;43.164;27.786;2022-08-16T11:39:29;99753.09;;;34.18;32.73
63088;BME280;49173;43.164;27.786;2022-08-16T11:41:56;99755.47;;;34.09;32.70
63088;BME280;49173;43.164;27.786;2022-08-16T11:44:26;99749.59;;;34.05;32.81
63088;BME280;49173;43.164;27.786;2022-08-16T11:46:55;99744.09;;;34.10;32.50
63088;BME280;49173;43.164;27.786;2022-08-16T11:49:21;99748.81;;;34.10;33.16
63088;BME280;49173;43.164;27.786;2022-08-16T11:51:51;99744.59;;;34.07;33.28
63088;BME280;49173;43.164;27.786;2022-08-16T11:54:17;99735.16;;;34.08;33.20
63088;BME280;49173;43.164;27.786;2022-08-16T11:56:44;99734.47;;;34.01;33.40
63088;BME280;49173;43.164;27.786;2022-08-16T11:59:11;99737.16;;;33.96;33.35
63088;BME280;49173;43.164;27.786;2022-08-16T12:01:38;99736.00;;;33.92;32.72
63088;BME280;49173;43.164;27.786;2022-08-16T12:04:07;99735.03;;;33.86;32.85
63088;BME280;49173;43.164;27.786;2022-08-16T12:06:35;99725.00;;;33.85;33.71
63088;BME280;49173;43.164;27.786;2022-08-16T12:09:05;99724.28;;;33.90;33.53
63088;BME280;49173;43.164;27.786;2022-08-16T12:11:31;99726.13;;;34.01;33.63
63088;BME280;49173;43.164;27.786;2022-08-16T12:14:00;99720.47;;;34.13;33.22
63088;BME280;49173;43.164;27.786;2022-08-16T12:16:29;99720.34;;;34.25;32.70
63088;BME280;49173;43.164;27.786;2022-08-16T12:18:56;99721.22;;;34.42;32.50
63088;BME280;49173;43.164;27.786;2022-08-16T12:21:23;99714.94;;;34.52;32.00
63088;BME280;49173;43.164;27.786;2022-08-16T12:23:49;99718.06;;;34.55;31.42
63088;BME280;49173;43.164;27.786;2022-08-16T12:26:24;99720.59;;;34.57;31.80
63088;BME280;49173;43.164;27.786;2022-08-16T12:28:52;99728.00;;;34.68;31.81
63088;BME280;49173;43.164;27.786;2022-08-16T12:31:19;99723.91;;;34.76;31.33
63088;BME280;49173;43.164;27.786;2022-08-16T12:33:47;99721.00;;;34.87;30.78
63088;BME280;49173;43.164;27.786;2022-08-16T12:36:13;99725.63;;;34.99;31.13
63088;BME280;49173;43.164;27.786;2022-08-16T12:38:45;99719.31;;;35.08;30.45
63088;BME280;49173;43.164;27.786;2022-08-16T12:41:12;99717.66;;;35.07;30.10
63088;BME280;49173;43.164;27.786;2022-08-16T12:43:40;99718.19;;;35.04;29.42
63088;BME280;49173;43.164;27.786;2022-08-16T12:46:08;99736.88;;;35.04;28.58
63088;BME280;49173;43.164;27.786;2022-08-16T12:48:38;99728.22;;;35.05;31.47
63088;BME280;49173;43.164;27.786;2022-08-16T12:51:30;99718.31;;;34.92;32.09
63088;BME280;49173;43.164;27.786;2022-08-16T12:53:59;99722.81;;;34.77;32.60
63088;BME280;49173;43.164;27.786;2022-08-16T12:56:33;99729.34;;;34.65;33.39